Harrison Park (222) Station Data

Red Flag Warning: No
Fire Weather Zone: 258
SDGE Region: Ramona
Lat/Lon: 33.04/-116.561

Observations

Time Wind Speed/Gust Temp(F) RH Fuel Moist Fuel Temp(F) Dewpt(F) Tmax(F) Tmin(F) Accum Precip 10-min Precip SL Press(mb)
4/30 12:00am 159 2 G 4 54° 15% - - 61.9° 46.1° - - 1019.0
4/29 11:50pm 282 1 G 2 54° 19% - - 12° 61.9° 46.1° - - 1019.0
4/29 11:40pm 286 2 G 3 54° 20% - - 13° 61.9° 46.1° - - 1019.0
4/29 11:30pm 271 2 G 3 53° 20% - - 13° 61.9° 46.1° - - 1019.0
4/29 11:20pm 275 2 G 4 53° 20% - - 14° 61.9° 46.1° - - 1019.0
4/29 11:10pm 267 3 G 4 53° 21% - - 14° 61.9° 46.1° - - 1019.0
4/29 11:00pm 274 3 G 4 53° 21% - - 14° 61.9° 46.1° - - 1019.0
4/29 10:50pm 274 3 G 5 53° 23% - - 16° 61.9° 46.1° - - 1019.0
4/29 10:40pm 272 4 G 6 53° 24% - - 17° 61.9° 46.1° - - 1019.0
4/29 10:30pm 274 3 G 5 53° 24% - - 17° 61.9° 46.1° - - 1019.0
4/29 10:20pm 266 4 G 5 53° 27% - - 19° 61.9° 46.1° - - 1019.0
4/29 10:10pm 269 3 G 5 53° 28% - - 21° 61.9° 46.1° - - 1019.0
4/29 10:00pm 275 4 G 5 53° 28% - - 21° 61.9° 46.1° - - 1019.0
4/29 9:50pm 279 3 G 4 53° 27% - - 20° 61.9° 46.1° - - 1019.0
4/29 9:40pm 273 3 G 4 53° 28% - - 21° 61.9° 46.1° - - 1019.0
4/29 9:30pm 274 3 G 4 54° 28% - - 21° 61.9° 46.1° - - 1019.0
4/29 9:20pm 271 3 G 5 53° 28% - - 21° 61.9° 46.1° - - 1019.0
4/29 9:10pm 269 4 G 5 53° 29% - - 22° 61.9° 46.1° - - 1019.0
4/29 9:00pm 284 5 G 8 53° 29% - - 22° 61.9° 46.1° - - 1018.0
4/29 8:50pm 275 6 G 8 53° 29% - - 22° 61.9° 46.1° - - 1018.0
4/29 8:40pm 274 4 G 7 53° 30% - - 22° 61.9° 46.1° - - 1018.0
4/29 8:30pm 275 5 G 8 53° 30% - - 22° 61.9° 46.1° - - 1018.0
4/29 8:20pm 281 5 G 8 53° 30% - - 22° 61.9° 46.1° - - 1018.0
4/29 8:10pm 275 5 G 8 53° 30% - - 22° 61.9° 46.1° - - 1018.0
4/29 8:00pm 278 5 G 8 54° 29% - - 22° 61.9° 46.1° - - 1017.0
4/29 7:50pm 284 5 G 9 54° 28% - - 22° 61.9° 46.1° - - 1017.0
4/29 7:40pm 235 3 G 5 54° 28% - - 22° 61.9° 46.1° - - 1017.0
4/29 7:30pm 262 6 G 9 55° 26% - - 21° 61.9° 46.1° - - 1017.0
4/29 7:20pm 258 8 G 13 56° 26% - - 21° 61.9° 46.1° - - 1016.0
4/29 7:10pm 251 11 G 14 57° 24% - - 20° 61.9° 46.1° - - 1016.0
4/29 7:00pm 204 4 G 11 61° 14% - - 10° 61.9° 46.1° - - 1015.0
4/29 6:50pm 154 4 G 6 60° 12% - - 61.9° 46.1° - - 1015.0
4/29 6:40pm 134 4 G 7 60° 12% - - 61.9° 46.1° - - 1015.0
4/29 6:30pm 121 6 G 10 60° 12% - - 61.9° 46.1° - - 1015.0
4/29 6:20pm 120 6 G 10 60° 12% - - 61.9° 46.1° - - 1014.0
4/29 6:10pm 116 7 G 11 60° 12% - - 61.9° 46.1° - - 1014.0
4/29 6:00pm 110 7 G 12 60° 12% - - 61.9° 46.1° - - 1014.0
4/29 5:50pm 97 8 G 14 60° 12% - - 61.9° 46.1° - - 1014.0
4/29 5:40pm 114 7 G 12 61° 12% - - 61.9° 46.1° - - 1014.0
4/29 5:30pm 105 8 G 13 60° 12% - - 61.9° 46.1° - - 1014.0
4/29 5:20pm 91 6 G 12 61° 12% - - 61.9° 46.1° - - 1014.0
4/29 5:10pm 107 6 G 11 61° 12% - - 61.9° 46.1° - - 1014.0
4/29 5:00pm 94 7 G 15 60° 12% - - 61.5° 46.1° - - 1014.0
4/29 4:50pm 110 8 G 13 61° 12% - - 61.5° 46.1° - - 1014.0
4/29 4:40pm 106 8 G 16 60° 12% - - 61.5° 46.1° - - 1014.0
4/29 4:30pm 100 8 G 14 61° 12% - - 61.5° 46.1° - - 1014.0
4/29 4:20pm 90 7 G 14 61° 12% - - 61.5° 46.1° - - 1014.0
4/29 4:10pm 97 9 G 18 60° 12% - - 61.5° 46.1° - - 1014.0
4/29 4:00pm 99 8 G 15 60° 12% - - 61.5° 46.1° - - 1014.0
4/29 3:50pm 94 7 G 12 60° 12% - - 61.5° 46.1° - - 1014.0
4/29 3:40pm 97 6 G 11 60° 13% - - 61.5° 46.1° - - 1014.0
4/29 3:30pm 109 7 G 14 60° 13% - - 61.5° 46.1° - - 1014.0
4/29 3:20pm 108 7 G 15 60° 13% - - 60.7° 46.1° - - 1014.0
4/29 3:10pm 100 8 G 16 60° 13% - - 60.7° 46.1° - - 1014.0
4/29 3:00pm 96 11 G 16 59° 13% - - 60.7° 46.1° - - 1015.0
4/29 2:50pm 100 11 G 19 59° 12% - - 60.7° 46.1° - - 1015.0
4/29 2:40pm 94 10 G 19 59° 13% - - 60.7° 46.1° - - 1015.0
4/29 2:30pm 101 10 G 18 59° 13% - - 59.9° 46.1° - - 1015.0
4/29 2:20pm 102 10 G 16 59° 13% - - 59.9° 46.1° - - 1015.0
4/29 2:10pm 87 9 G 16 59° 13% - - 59.9° 46.1° - - 1015.0
4/29 2:00pm 92 12 G 21 58° 13% - - 59.9° 46.1° - - 1015.0
4/29 1:50pm 87 9 G 16 59° 14% - - 59.9° 46.1° - - 1015.0
4/29 1:40pm 100 12 G 19 58° 14% - - 59.2° 46.1° - - 1015.0
4/29 1:30pm 120 11 G 17 58° 14% - - 59° 46.1° - - 1015.0
4/29 1:20pm 103 11 G 20 58° 13% - - 59° 46.1° - - 1015.0
4/29 1:10pm 100 10 G 16 58° 14% - - 58.2° 46.1° - - 1015.0
4/29 1:00pm 99 11 G 19 57° 15% - - 58.2° 46.1° - - 1015.0
4/29 12:50pm 102 14 G 23 57° 14% - - 58.1° 46.1° - - 1015.0
4/29 12:40pm 106 11 G 22 56° 15% - - 10° 58.1° 46.1° - - 1015.0
4/29 12:30pm 101 13 G 24 56° 15% - - 56.7° 46.1° - - 1015.0
4/29 12:20pm 95 15 G 24 55° 15% - - 55.7° 46.1° - - 1016.0
4/29 12:10pm 96 15 G 26 55° 16% - - 55.7° 46.1° - - 1016.0
4/29 12:00pm 98 14 G 24 55° 16% - - 55.7° 46.1° - - 1015.0
4/29 11:50am 98 17 G 27 54° 15% - - 55.1° 46.1° - - 1015.0
4/29 11:40am 88 17 G 30 54° 15% - - 54.7° 46.1° - - 1015.0
4/29 11:30am 93 17 G 28 54° 15% - - 54.5° 46.1° - - 1015.0
4/29 11:20am 92 16 G 26 54° 16% - - 54.4° 46.1° - - 1016.0
4/29 11:10am 87 18 G 30 53° 16% - - 54° 46.1° - - 1016.0
4/29 11:00am 98 18 G 29 53° 16% - - 54° 46.1° - - 1015.0
4/29 10:50am 101 16 G 26 53° 17% - - 53.7° 46.1° - - 1016.0
4/29 10:40am 96 15 G 26 53° 17% - - 53.3° 46.1° - - 1016.0
4/29 10:30am 97 15 G 25 53° 17% - - 53.2° 46.1° - - 1016.0
4/29 10:20am 100 14 G 24 52° 17% - - 53.1° 46.1° - - 1016.0
4/29 10:10am 98 18 G 27 52° 16% - - 52.9° 46.1° - - 1016.0
4/29 10:00am 98 17 G 28 52° 15% - - 52.9° 46.1° - - 1016.0
4/29 9:50am 113 16 G 24 52° 16% - - 52.9° 46.1° - - 1016.0
4/29 9:40am 106 12 G 22 52° 16% - - 52.9° 46.1° - - 1016.0
4/29 9:30am 93 13 G 24 51° 15% - - 52.9° 46.1° - - 1016.0
4/29 9:20am 86 16 G 26 50° 15% - - 52.9° 46.1° - - 1016.0
4/29 9:10am 88 15 G 23 50° 16% - - 52.9° 46.1° - - 1016.0
4/29 9:00am 92 13 G 21 50° 16% - - 52.9° 46.1° - - 1016.0
4/29 8:50am 95 12 G 21 50° 17% - - 52.9° 46.1° - - 1016.0
4/29 8:40am 88 14 G 24 50° 16% - - 52.9° 46.1° - - 1016.0
4/29 8:30am 88 12 G 20 50° 16% - - 52.9° 46.1° - - 1016.0
4/29 8:20am 74 13 G 18 49° 15% - - 52.9° 46.1° - - 1016.0
4/29 8:10am 88 12 G 18 49° 15% - - 52.9° 46.1° - - 1016.0
4/29 8:00am 77 16 G 25 49° 15% - - 52.9° 46.1° - - 1016.0
4/29 7:50am 69 18 G 25 49° 14% - - 52.9° 46.1° - - 1016.0
4/29 7:40am 79 17 G 25 48° 15% - - 52.9° 46.1° - - 1016.0
4/29 7:30am 88 15 G 25 48° 14% - - 52.9° 46.1° - - 1015.0
4/29 7:20am 79 20 G 29 48° 14% - - 52.9° 46.1° - - 1015.0
4/29 7:10am 90 16 G 30 48° 14% - - 52.9° 46.1° - - 1016.0
4/29 7:00am 85 16 G 24 47° 14% - - 52.9° 46.1° - - 1016.0
4/29 6:50am 77 18 G 28 47° 15% - - 52.9° 46.1° - - 1015.0
4/29 6:40am 74 20 G 30 47° 15% - - 52.9° 46.1° - - 1015.0
4/29 6:30am 74 21 G 30 47° 15% - - 52.9° 46.1° - - 1015.0
4/29 6:20am 74 18 G 25 47° 15% - - 52.9° 46.1° - - 1015.0
4/29 6:10am 70 18 G 24 46° 16% - - 52.9° 46.1° - - 1015.0
4/29 6:00am 76 20 G 29 46° 16% - - 52.9° 46.2° - - 1015.0
4/29 5:50am 77 19 G 27 47° 16% - - 52.9° 46.2° - - 1015.0
4/29 5:40am 80 16 G 24 46° 16% - - 52.9° 46.2° - - 1015.0
4/29 5:30am 75 16 G 24 47° 16% - - 52.9° 46.2° - - 1015.0
4/29 5:20am 73 17 G 23 47° 16% - - 52.9° 46.5° - - 1014.0
4/29 5:10am 75 18 G 26 47° 15% - - 52.9° 46.8° - - 1014.0
4/29 5:00am 75 17 G 24 47° 15% - - 52.9° 46.8° - - 1014.0
4/29 4:50am 76 19 G 28 48° 15% - - 52.9° 47.2° - - 1014.0
4/29 4:40am 77 20 G 30 48° 15% - - 52.9° 47.3° - - 1014.0
4/29 4:30am 82 20 G 32 48° 15% - - 52.9° 47.6° - - 1014.0
4/29 4:20am 76 19 G 27 48° 15% - - 52.9° 47.6° - - 1014.0
4/29 4:10am 77 19 G 30 48° 15% - - 52.9° 47.8° - - 1014.0
4/29 4:00am 78 18 G 28 48° 15% - - 52.9° 48° - - 1013.0
4/29 3:50am 79 18 G 29 48° 16% - - 52.9° 48° - - 1013.0
4/29 3:40am 81 15 G 24 48° 16% - - 52.9° 48° - - 1013.0
4/29 3:30am 85 17 G 25 49° 16% - - 52.9° 48.2° - - 1013.0
4/29 3:20am 88 16 G 23 49° 16% - - 52.9° 48.2° - - 1013.0
4/29 3:10am 86 16 G 23 49° 16% - - 52.9° 48.6° - - 1013.0
4/29 3:00am 86 15 G 21 49° 16% - - 52.9° 48.6° - - 1013.0
4/29 2:50am 87 16 G 22 49° 16% - - 52.9° 48.8° - - 1013.0
4/29 2:40am 84 15 G 26 50° 16% - - 52.9° 49.4° - - 1013.0
4/29 2:30am 80 17 G 26 50° 15% - - 52.9° 49.5° - - 1012.0
4/29 2:20am 79 18 G 26 50° 15% - - 52.9° 49.8° - - 1012.0
4/29 2:10am 77 19 G 28 50° 15% - - 52.9° 49.9° - - 1012.0
4/29 2:00am 72 19 G 28 50° 15% - - 52.9° 49.9° - - 1012.0
4/29 1:50am 74 21 G 28 51° 14% - - 52.9° 50.2° - - 1012.0
4/29 1:40am 74 21 G 30 51° 14% - - 52.9° 50.6° - - 1012.0
4/29 1:30am 75 18 G 27 51° 14% - - 52.9° 50.9° - - 1012.0
4/29 1:20am 72 18 G 24 51° 14% - - 52.9° 51.1° - - 1012.0
4/29 1:10am 73 17 G 25 52° 14% - - 52.9° 51.1° - - 1012.0
4/29 1:00am 76 18 G 25 52° 14% - - 52.9° 51.2° - - 1011.0
4/29 12:50am 77 17 G 27 52° 14% - - 52.9° 51.2° - - 1011.0
4/29 12:40am 72 18 G 27 52° 14% - - 52.9° 51.2° - - 1011.0
4/29 12:30am 78 16 G 22 52° 18% - - 52.9° 51.2° - - 1011.0
4/29 12:20am 79 15 G 24 52° 20% - - 12° 52.9° 51.4° - - 1011.0
4/29 12:10am 86 13 G 17 52° 20% - - 12° 52.6° 52.1° - - 1011.0
4/29 12:00am 90 11 G 17 52° 22% - - 15° 63.1° 47.5° - - 1011.0
4/28 11:50pm 79 10 G 14 52° 26% - - 18° 63.1° 47.5° - - 1011.0
4/28 11:40pm 72 9 G 12 52° 29% - - 21° 63.1° 47.5° - - 1011.0
4/28 11:30pm 87 8 G 14 52° 25% - - 18° 63.1° 47.5° - - 1011.0
4/28 11:20pm 92 6 G 8 52° 25% - - 18° 63.1° 47.5° - - 1011.0
4/28 11:10pm 96 6 G 9 52° 31% - - 23° 63.1° 47.5° - - 1011.0
4/28 11:00pm 95 7 G 12 53° 43% - - 31° 63.1° 47.5° - - 1010.0
4/28 10:50pm 71 6 G 8 54° 48% - - 34° 63.1° 47.5° - - 1010.0
4/28 10:40pm 58 6 G 8 54° 48% - - 35° 63.1° 47.5° - - 1010.0
4/28 10:30pm 68 4 G 5 54° 48% - - 35° 63.1° 47.5° - - 1010.0
4/28 10:20pm 63 3 G 5 53° 49% - - 35° 63.1° 47.5° - - 1010.0
4/28 10:10pm 17 3 G 7 54° 48% - - 35° 63.1° 47.5° - - 1010.0
4/28 10:00pm 17 4 G 8 53° 49% - - 35° 63.1° 47.5° - - 1010.0
4/28 9:50pm 41 4 G 7 54° 48% - - 34° 63.1° 47.5° - - 1010.0
4/28 9:40pm 74 2 G 5 53° 48% - - 34° 63.1° 47.5° - - 1010.0
4/28 9:30pm 62 4 G 9 53° 47% - - 33° 63.1° 47.5° - - 1010.0
4/28 9:20pm 43 1 G 3 53° 46% - - 33° 63.1° 47.5° - - 1010.0
4/28 9:10pm 250 3 G 6 53° 46% - - 33° 63.1° 47.5° - - 1010.0
4/28 9:00pm 238 3 G 5 53° 49% - - 34° 63.1° 47.5° - - 1010.0
4/28 8:50pm 233 4 G 6 53° 49% - - 34° 63.1° 47.5° - - 1010.0
4/28 8:40pm 255 4 G 6 52° 51% - - 35° 63.1° 47.5° - - 1009.0
4/28 8:30pm 259 4 G 5 51° 53% - - 35° 63.1° 47.5° - - 1010.0
4/28 8:20pm 266 5 G 7 51° 54% - - 35° 63.1° 47.5° - - 1009.0
4/28 8:10pm 267 5 G 7 51° 54% - - 35° 63.1° 47.5° - - 1009.0
4/28 8:00pm 266 6 G 8 51° 55% - - 35° 63.1° 47.5° - - 1009.0
4/28 7:50pm 276 8 G 12 51° 54% - - 35° 63.1° 47.5° - - 1009.0
4/28 7:40pm 264 10 G 12 51° 55% - - 36° 63.1° 47.5° - - 1009.0
4/28 7:30pm 261 10 G 14 52° 56% - - 37° 63.1° 47.5° - - 1009.0
4/28 7:20pm 261 12 G 15 52° 58% - - 38° 63.1° 47.5° - - 1008.0
4/28 7:10pm 263 10 G 14 53° 58% - - 39° 63.1° 47.5° - - 1008.0
4/28 7:00pm 264 9 G 14 54° 57% - - 39° 63.1° 47.5° - - 1008.0
4/28 6:50pm 261 12 G 17 54° 59% - - 40° 63.1° 47.5° - - 1008.0
4/28 6:40pm 262 12 G 16 54° 60% - - 40° 63.1° 47.5° - - 1007.0
4/28 6:30pm 259 13 G 18 54° 59% - - 40° 63.1° 47.5° - - 1007.0
4/28 6:20pm 255 15 G 20 55° 60% - - 41° 63.1° 47.5° - - 1007.0
4/28 6:10pm 254 15 G 20 55° 61% - - 42° 63.1° 47.5° - - 1007.0
4/28 6:00pm 259 15 G 20 55° 61% - - 42° 63.1° 47.5° - - 1007.0